sensor_id;sensor_type;location;lat;lon;timestamp;P1;durP1;ratioP1;P2;durP2;ratioP2
10281;SDS011;5186;59.472;18.048;2022-10-31T00:02:04;16.40;;;9.97;;
10281;SDS011;5186;59.472;18.048;2022-10-31T00:04:30;17.67;;;10.30;;
10281;SDS011;5186;59.472;18.048;2022-10-31T00:06:56;18.57;;;11.50;;
10281;SDS011;5186;59.472;18.048;2022-10-31T00:09:21;18.03;;;11.97;;
10281;SDS011;5186;59.472;18.048;2022-10-31T00:11:47;16.43;;;10.47;;
10281;SDS011;5186;59.472;18.048;2022-10-31T00:14:12;16.23;;;10.83;;
10281;SDS011;5186;59.472;18.048;2022-10-31T00:16:38;15.53;;;9.67;;
10281;SDS011;5186;59.472;18.048;2022-10-31T00:19:06;14.53;;;9.93;;
10281;SDS011;5186;59.472;18.048;2022-10-31T00:21:33;15.50;;;9.47;;
10281;SDS011;5186;59.472;18.048;2022-10-31T00:23:59;14.53;;;9.70;;
10281;SDS011;5186;59.472;18.048;2022-10-31T00:26:26;13.90;;;9.63;;
10281;SDS011;5186;59.472;18.048;2022-10-31T00:28:56;15.13;;;9.77;;
10281;SDS011;5186;59.472;18.048;2022-10-31T00:31:22;13.30;;;9.33;;
10281;SDS011;5186;59.472;18.048;2022-10-31T00:33:48;14.80;;;9.83;;
10281;SDS011;5186;59.472;18.048;2022-10-31T00:36:14;17.63;;;10.50;;
10281;SDS011;5186;59.472;18.048;2022-10-31T00:38:42;14.20;;;9.43;;
10281;SDS011;5186;59.472;18.048;2022-10-31T00:41:09;14.43;;;8.60;;
10281;SDS011;5186;59.472;18.048;2022-10-31T00:43:35;12.83;;;8.63;;
10281;SDS011;5186;59.472;18.048;2022-10-31T00:46:01;12.87;;;8.80;;
10281;SDS011;5186;59.472;18.048;2022-10-31T00:48:27;14.47;;;9.17;;
10281;SDS011;5186;59.472;18.048;2022-10-31T00:50:53;11.13;;;7.77;;
10281;SDS011;5186;59.472;18.048;2022-10-31T00:53:18;15.53;;;8.77;;
10281;SDS011;5186;59.472;18.048;2022-10-31T00:55:44;10.87;;;8.53;;
10281;SDS011;5186;59.472;18.048;2022-10-31T00:58:10;13.67;;;9.07;;
10281;SDS011;5186;59.472;18.048;2022-10-31T01:00:35;12.70;;;9.17;;
10281;SDS011;5186;59.472;18.048;2022-10-31T01:03:01;13.07;;;8.27;;
10281;SDS011;5186;59.472;18.048;2022-10-31T01:05:27;13.80;;;8.53;;
10281;SDS011;5186;59.472;18.048;2022-10-31T01:07:52;13.07;;;8.87;;
10281;SDS011;5186;59.472;18.048;2022-10-31T01:10:18;12.60;;;8.63;;
10281;SDS011;5186;59.472;18.048;2022-10-31T01:12:45;12.40;;;7.90;;
10281;SDS011;5186;59.472;18.048;2022-10-31T01:15:13;11.07;;;8.00;;
10281;SDS011;5186;59.472;18.048;2022-10-31T01:17:41;12.27;;;7.50;;
10281;SDS011;5186;59.472;18.048;2022-10-31T01:20:07;10.37;;;7.43;;
10281;SDS011;5186;59.472;18.048;2022-10-31T01:22:34;11.63;;;7.40;;
10281;SDS011;5186;59.472;18.048;2022-10-31T01:25:00;10.87;;;7.53;;
10281;SDS011;5186;59.472;18.048;2022-10-31T01:27:26;12.17;;;7.67;;
10281;SDS011;5186;59.472;18.048;2022-10-31T01:29:51;12.13;;;7.70;;
10281;SDS011;5186;59.472;18.048;2022-10-31T01:32:17;11.03;;;7.53;;
10281;SDS011;5186;59.472;18.048;2022-10-31T01:34:43;10.37;;;7.40;;
10281;SDS011;5186;59.472;18.048;2022-10-31T01:37:08;10.13;;;6.93;;
10281;SDS011;5186;59.472;18.048;2022-10-31T01:39:35;10.10;;;7.03;;
10281;SDS011;5186;59.472;18.048;2022-10-31T01:42:01;10.57;;;7.03;;
10281;SDS011;5186;59.472;18.048;2022-10-31T01:46:57;9.47;;;5.93;;
10281;SDS011;5186;59.472;18.048;2022-10-31T01:49:34;11.70;;;6.80;;
10281;SDS011;5186;59.472;18.048;2022-10-31T01:52:07;10.67;;;6.63;;
10281;SDS011;5186;59.472;18.048;2022-10-31T01:54:46;10.43;;;6.83;;
10281;SDS011;5186;59.472;18.048;2022-10-31T01:57:16;8.43;;;6.10;;
10281;SDS011;5186;59.472;18.048;2022-10-31T01:59:44;8.50;;;5.80;;
10281;SDS011;5186;59.472;18.048;2022-10-31T02:02:14;10.80;;;6.63;;
10281;SDS011;5186;59.472;18.048;2022-10-31T02:04:41;11.10;;;6.53;;
10281;SDS011;5186;59.472;18.048;2022-10-31T02:07:10;11.10;;;6.57;;
10281;SDS011;5186;59.472;18.048;2022-10-31T02:09:41;9.50;;;6.03;;
10281;SDS011;5186;59.472;18.048;2022-10-31T02:12:08;11.67;;;6.03;;
10281;SDS011;5186;59.472;18.048;2022-10-31T02:14:35;11.10;;;5.97;;
10281;SDS011;5186;59.472;18.048;2022-10-31T02:17:02;8.37;;;5.77;;
10281;SDS011;5186;59.472;18.048;2022-10-31T02:22:00;10.47;;;5.80;;
10281;SDS011;5186;59.472;18.048;2022-10-31T02:31:23;8.03;;;5.57;;
10281;SDS011;5186;59.472;18.048;2022-10-31T02:33:51;6.37;;;4.80;;
10281;SDS011;5186;59.472;18.048;2022-10-31T02:36:28;8.30;;;5.37;;
10281;SDS011;5186;59.472;18.048;2022-10-31T02:39:23;10.93;;;5.83;;
10281;SDS011;5186;59.472;18.048;2022-10-31T02:47:21;9.33;;;5.03;;
10281;SDS011;5186;59.472;18.048;2022-10-31T02:49:59;9.97;;;5.37;;
10281;SDS011;5186;59.472;18.048;2022-10-31T02:52:32;11.47;;;5.73;;
10281;SDS011;5186;59.472;18.048;2022-10-31T02:55:08;7.47;;;5.37;;
10281;SDS011;5186;59.472;18.048;2022-10-31T02:57:56;7.90;;;5.17;;
10281;SDS011;5186;59.472;18.048;2022-10-31T03:00:37;8.70;;;5.23;;
10281;SDS011;5186;59.472;18.048;2022-10-31T03:11:01;8.97;;;5.17;;
10281;SDS011;5186;59.472;18.048;2022-10-31T03:15:56;9.57;;;5.17;;
10281;SDS011;5186;59.472;18.048;2022-10-31T03:18:52;8.80;;;4.83;;
10281;SDS011;5186;59.472;18.048;2022-10-31T03:21:44;8.53;;;5.20;;
10281;SDS011;5186;59.472;18.048;2022-10-31T03:24:14;7.07;;;4.57;;
10281;SDS011;5186;59.472;18.048;2022-10-31T03:26:41;10.80;;;5.17;;
10281;SDS011;5186;59.472;18.048;2022-10-31T03:29:13;8.47;;;4.80;;
10281;SDS011;5186;59.472;18.048;2022-10-31T03:31:47;8.17;;;5.27;;
10281;SDS011;5186;59.472;18.048;2022-10-31T03:34:16;9.53;;;5.47;;
10281;SDS011;5186;59.472;18.048;2022-10-31T03:36:43;9.47;;;6.57;;
10281;SDS011;5186;59.472;18.048;2022-10-31T03:39:13;13.53;;;5.70;;
10281;SDS011;5186;59.472;18.048;2022-10-31T03:41:42;8.03;;;5.57;;
10281;SDS011;5186;59.472;18.048;2022-10-31T03:44:12;11.43;;;5.70;;
10281;SDS011;5186;59.472;18.048;2022-10-31T03:46:41;10.23;;;6.00;;
10281;SDS011;5186;59.472;18.048;2022-10-31T03:49:08;7.80;;;5.23;;
10281;SDS011;5186;59.472;18.048;2022-10-31T03:56:52;7.60;;;5.10;;
10281;SDS011;5186;59.472;18.048;2022-10-31T03:59:32;9.40;;;5.10;;
10281;SDS011;5186;59.472;18.048;2022-10-31T04:02:03;7.80;;;5.37;;
10281;SDS011;5186;59.472;18.048;2022-10-31T04:04:33;8.27;;;5.07;;
10281;SDS011;5186;59.472;18.048;2022-10-31T04:07:00;9.97;;;5.00;;
10281;SDS011;5186;59.472;18.048;2022-10-31T04:09:27;8.00;;;5.13;;
10281;SDS011;5186;59.472;18.048;2022-10-31T04:11:56;7.83;;;5.17;;
10281;SDS011;5186;59.472;18.048;2022-10-31T04:14:25;9.53;;;5.20;;
10281;SDS011;5186;59.472;18.048;2022-10-31T04:16:54;7.73;;;4.87;;
10281;SDS011;5186;59.472;18.048;2022-10-31T04:19:20;9.83;;;4.70;;
10281;SDS011;5186;59.472;18.048;2022-10-31T04:21:46;8.13;;;5.00;;
10281;SDS011;5186;59.472;18.048;2022-10-31T04:24:11;9.20;;;5.57;;
10281;SDS011;5186;59.472;18.048;2022-10-31T04:26:37;9.90;;;4.87;;
10281;SDS011;5186;59.472;18.048;2022-10-31T04:29:03;9.43;;;5.03;;
10281;SDS011;5186;59.472;18.048;2022-10-31T04:31:28;8.83;;;4.90;;
10281;SDS011;5186;59.472;18.048;2022-10-31T04:33:54;6.67;;;4.70;;
10281;SDS011;5186;59.472;18.048;2022-10-31T04:36:20;9.50;;;4.83;;
10281;SDS011;5186;59.472;18.048;2022-10-31T04:38:45;8.77;;;4.00;;
10281;SDS011;5186;59.472;18.048;2022-10-31T04:41:11;5.00;;;3.53;;
10281;SDS011;5186;59.472;18.048;2022-10-31T04:43:37;6.27;;;3.73;;
10281;SDS011;5186;59.472;18.048;2022-10-31T04:46:02;5.37;;;3.40;;
10281;SDS011;5186;59.472;18.048;2022-10-31T04:48:29;6.50;;;3.83;;
10281;SDS011;5186;59.472;18.048;2022-10-31T04:51:01;7.93;;;3.90;;
10281;SDS011;5186;59.472;18.048;2022-10-31T04:53:27;6.57;;;3.70;;
10281;SDS011;5186;59.472;18.048;2022-10-31T04:55:53;5.60;;;3.43;;
10281;SDS011;5186;59.472;18.048;2022-10-31T04:58:18;4.67;;;3.40;;
10281;SDS011;5186;59.472;18.048;2022-10-31T05:00:44;4.07;;;3.17;;
10281;SDS011;5186;59.472;18.048;2022-10-31T05:03:09;6.03;;;3.53;;
10281;SDS011;5186;59.472;18.048;2022-10-31T05:05:35;6.60;;;3.60;;
10281;SDS011;5186;59.472;18.048;2022-10-31T05:08:01;6.57;;;3.30;;
10281;SDS011;5186;59.472;18.048;2022-10-31T05:10:27;6.03;;;3.70;;
10281;SDS011;5186;59.472;18.048;2022-10-31T05:12:55;5.47;;;3.60;;
10281;SDS011;5186;59.472;18.048;2022-10-31T05:15:23;6.70;;;3.47;;
10281;SDS011;5186;59.472;18.048;2022-10-31T05:17:50;7.13;;;4.03;;
10281;SDS011;5186;59.472;18.048;2022-10-31T05:20:16;5.07;;;3.73;;
10281;SDS011;5186;59.472;18.048;2022-10-31T05:22:47;5.97;;;3.40;;
10281;SDS011;5186;59.472;18.048;2022-10-31T05:25:14;5.57;;;3.30;;
10281;SDS011;5186;59.472;18.048;2022-10-31T05:27:41;6.37;;;4.10;;
10281;SDS011;5186;59.472;18.048;2022-10-31T05:30:09;8.77;;;4.43;;
10281;SDS011;5186;59.472;18.048;2022-10-31T05:32:38;6.33;;;3.90;;
10281;SDS011;5186;59.472;18.048;2022-10-31T05:35:04;5.23;;;3.77;;
10281;SDS011;5186;59.472;18.048;2022-10-31T05:37:33;6.43;;;3.80;;
10281;SDS011;5186;59.472;18.048;2022-10-31T05:39:59;8.27;;;4.27;;
10281;SDS011;5186;59.472;18.048;2022-10-31T05:42:24;8.77;;;4.67;;
10281;SDS011;5186;59.472;18.048;2022-10-31T05:44:50;20.33;;;7.03;;
10281;SDS011;5186;59.472;18.048;2022-10-31T05:47:16;22.30;;;7.43;;
10281;SDS011;5186;59.472;18.048;2022-10-31T05:49:41;24.07;;;6.90;;
10281;SDS011;5186;59.472;18.048;2022-10-31T05:52:07;28.37;;;7.07;;
10281;SDS011;5186;59.472;18.048;2022-10-31T05:54:32;107.23;;;11.47;;
10281;SDS011;5186;59.472;18.048;2022-10-31T05:56:58;42.90;;;9.10;;
10281;SDS011;5186;59.472;18.048;2022-10-31T05:59:23;176.73;;;13.83;;
10281;SDS011;5186;59.472;18.048;2022-10-31T06:01:49;43.40;;;10.03;;
10281;SDS011;5186;59.472;18.048;2022-10-31T06:04:14;58.07;;;13.83;;
10281;SDS011;5186;59.472;18.048;2022-10-31T06:06:40;33.70;;;10.53;;
10281;SDS011;5186;59.472;18.048;2022-10-31T06:09:06;96.30;;;11.17;;
10281;SDS011;5186;59.472;18.048;2022-10-31T06:11:31;109.03;;;12.90;;
10281;SDS011;5186;59.472;18.048;2022-10-31T06:13:57;36.63;;;10.13;;
10281;SDS011;5186;59.472;18.048;2022-10-31T06:16:22;69.47;;;12.97;;
10281;SDS011;5186;59.472;18.048;2022-10-31T06:18:48;84.40;;;12.53;;
10281;SDS011;5186;59.472;18.048;2022-10-31T06:21:13;40.37;;;11.00;;
10281;SDS011;5186;59.472;18.048;2022-10-31T06:23:39;34.60;;;9.60;;
10281;SDS011;5186;59.472;18.048;2022-10-31T06:26:05;81.17;;;13.10;;
10281;SDS011;5186;59.472;18.048;2022-10-31T06:28:30;107.47;;;12.73;;
10281;SDS011;5186;59.472;18.048;2022-10-31T06:30:56;64.17;;;11.87;;
10281;SDS011;5186;59.472;18.048;2022-10-31T06:33:21;48.50;;;9.30;;
10281;SDS011;5186;59.472;18.048;2022-10-31T06:35:47;43.07;;;9.33;;
10281;SDS011;5186;59.472;18.048;2022-10-31T06:38:13;50.30;;;9.60;;
10281;SDS011;5186;59.472;18.048;2022-10-31T06:40:39;57.80;;;10.67;;
10281;SDS011;5186;59.472;18.048;2022-10-31T06:43:06;45.37;;;10.87;;
10281;SDS011;5186;59.472;18.048;2022-10-31T06:45:31;50.93;;;11.20;;
10281;SDS011;5186;59.472;18.048;2022-10-31T06:47:57;50.50;;;10.20;;
10281;SDS011;5186;59.472;18.048;2022-10-31T06:50:23;42.93;;;9.87;;
10281;SDS011;5186;59.472;18.048;2022-10-31T06:52:52;57.97;;;11.77;;
10281;SDS011;5186;59.472;18.048;2022-10-31T06:55:19;37.87;;;10.83;;
10281;SDS011;5186;59.472;18.048;2022-10-31T06:57:58;38.07;;;10.73;;
10281;SDS011;5186;59.472;18.048;2022-10-31T07:00:26;69.23;;;13.10;;
10281;SDS011;5186;59.472;18.048;2022-10-31T07:03:00;42.97;;;10.83;;
10281;SDS011;5186;59.472;18.048;2022-10-31T07:05:27;38.63;;;10.37;;
10281;SDS011;5186;59.472;18.048;2022-10-31T07:07:58;52.10;;;11.93;;
10281;SDS011;5186;59.472;18.048;2022-10-31T07:10:25;54.33;;;11.03;;
10281;SDS011;5186;59.472;18.048;2022-10-31T07:13:00;65.07;;;12.77;;
10281;SDS011;5186;59.472;18.048;2022-10-31T07:15:37;55.80;;;11.90;;
10281;SDS011;5186;59.472;18.048;2022-10-31T07:18:04;56.53;;;11.70;;
10281;SDS011;5186;59.472;18.048;2022-10-31T07:20:31;49.10;;;12.27;;
10281;SDS011;5186;59.472;18.048;2022-10-31T07:22:57;53.43;;;10.83;;
10281;SDS011;5186;59.472;18.048;2022-10-31T07:25:23;57.13;;;12.03;;
10281;SDS011;5186;59.472;18.048;2022-10-31T07:27:49;51.90;;;11.80;;
10281;SDS011;5186;59.472;18.048;2022-10-31T07:30:15;55.83;;;11.33;;
10281;SDS011;5186;59.472;18.048;2022-10-31T07:32:45;51.37;;;11.90;;
10281;SDS011;5186;59.472;18.048;2022-10-31T07:35:13;56.50;;;11.60;;
10281;SDS011;5186;59.472;18.048;2022-10-31T07:37:49;49.00;;;11.77;;
10281;SDS011;5186;59.472;18.048;2022-10-31T07:40:15;56.67;;;11.67;;
10281;SDS011;5186;59.472;18.048;2022-10-31T07:42:42;60.90;;;11.67;;
10281;SDS011;5186;59.472;18.048;2022-10-31T07:45:12;56.00;;;12.07;;
10281;SDS011;5186;59.472;18.048;2022-10-31T07:47:40;57.67;;;12.67;;
10281;SDS011;5186;59.472;18.048;2022-10-31T07:50:07;51.50;;;11.73;;
10281;SDS011;5186;59.472;18.048;2022-10-31T07:52:34;65.20;;;13.30;;
10281;SDS011;5186;59.472;18.048;2022-10-31T07:55:00;75.90;;;13.87;;
10281;SDS011;5186;59.472;18.048;2022-10-31T07:57:26;70.60;;;14.10;;
10281;SDS011;5186;59.472;18.048;2022-10-31T07:59:51;50.50;;;12.17;;
10281;SDS011;5186;59.472;18.048;2022-10-31T08:02:17;57.90;;;13.23;;
10281;SDS011;5186;59.472;18.048;2022-10-31T08:04:42;48.97;;;12.33;;
10281;SDS011;5186;59.472;18.048;2022-10-31T08:07:08;64.43;;;13.80;;
10281;SDS011;5186;59.472;18.048;2022-10-31T08:09:34;49.83;;;13.20;;
10281;SDS011;5186;59.472;18.048;2022-10-31T08:11:59;63.93;;;14.57;;
10281;SDS011;5186;59.472;18.048;2022-10-31T08:14:26;65.97;;;14.80;;
10281;SDS011;5186;59.472;18.048;2022-10-31T08:16:52;57.80;;;13.47;;
10281;SDS011;5186;59.472;18.048;2022-10-31T08:19:18;58.90;;;15.93;;
10281;SDS011;5186;59.472;18.048;2022-10-31T08:21:44;63.33;;;18.73;;
10281;SDS011;5186;59.472;18.048;2022-10-31T08:24:10;65.33;;;20.90;;
10281;SDS011;5186;59.472;18.048;2022-10-31T08:26:35;58.77;;;16.57;;
10281;SDS011;5186;59.472;18.048;2022-10-31T08:29:01;61.47;;;16.20;;
10281;SDS011;5186;59.472;18.048;2022-10-31T08:31:28;60.93;;;14.43;;
10281;SDS011;5186;59.472;18.048;2022-10-31T08:33:53;56.60;;;14.03;;
10281;SDS011;5186;59.472;18.048;2022-10-31T08:36:19;62.03;;;13.80;;
10281;SDS011;5186;59.472;18.048;2022-10-31T08:38:48;57.40;;;13.70;;
10281;SDS011;5186;59.472;18.048;2022-10-31T08:41:14;70.57;;;15.23;;
10281;SDS011;5186;59.472;18.048;2022-10-31T08:43:39;56.13;;;14.20;;
10281;SDS011;5186;59.472;18.048;2022-10-31T08:46:05;58.80;;;14.13;;
10281;SDS011;5186;59.472;18.048;2022-10-31T08:48:31;55.77;;;13.50;;
10281;SDS011;5186;59.472;18.048;2022-10-31T08:50:57;58.97;;;14.83;;
10281;SDS011;5186;59.472;18.048;2022-10-31T08:53:24;63.37;;;15.43;;
10281;SDS011;5186;59.472;18.048;2022-10-31T08:55:50;52.07;;;14.77;;
10281;SDS011;5186;59.472;18.048;2022-10-31T08:58:19;53.77;;;13.50;;
10281;SDS011;5186;59.472;18.048;2022-10-31T09:00:45;54.50;;;12.93;;
10281;SDS011;5186;59.472;18.048;2022-10-31T09:03:16;53.43;;;13.20;;
10281;SDS011;5186;59.472;18.048;2022-10-31T09:05:45;63.10;;;14.90;;
10281;SDS011;5186;59.472;18.048;2022-10-31T09:08:11;54.73;;;14.90;;
10281;SDS011;5186;59.472;18.048;2022-10-31T09:10:37;50.87;;;13.63;;
10281;SDS011;5186;59.472;18.048;2022-10-31T09:13:07;49.70;;;13.10;;
10281;SDS011;5186;59.472;18.048;2022-10-31T09:15:36;52.77;;;14.10;;
10281;SDS011;5186;59.472;18.048;2022-10-31T09:18:05;54.87;;;14.40;;
10281;SDS011;5186;59.472;18.048;2022-10-31T09:20:32;63.47;;;14.50;;
10281;SDS011;5186;59.472;18.048;2022-10-31T09:23:01;58.87;;;14.77;;
10281;SDS011;5186;59.472;18.048;2022-10-31T09:25:28;50.80;;;13.53;;
10281;SDS011;5186;59.472;18.048;2022-10-31T09:27:57;52.60;;;14.33;;
10281;SDS011;5186;59.472;18.048;2022-10-31T09:30:24;53.20;;;14.37;;
10281;SDS011;5186;59.472;18.048;2022-10-31T09:32:57;49.47;;;14.33;;
10281;SDS011;5186;59.472;18.048;2022-10-31T09:35:27;55.37;;;14.47;;
10281;SDS011;5186;59.472;18.048;2022-10-31T09:37:57;58.03;;;14.73;;
10281;SDS011;5186;59.472;18.048;2022-10-31T09:40:36;66.30;;;15.30;;
10281;SDS011;5186;59.472;18.048;2022-10-31T09:43:23;50.70;;;14.53;;
10281;SDS011;5186;59.472;18.048;2022-10-31T09:46:16;52.53;;;14.47;;
10281;SDS011;5186;59.472;18.048;2022-10-31T09:51:40;56.80;;;15.40;;
10281;SDS011;5186;59.472;18.048;2022-10-31T09:56:41;62.77;;;15.87;;
10281;SDS011;5186;59.472;18.048;2022-10-31T09:59:30;63.27;;;16.80;;
10281;SDS011;5186;59.472;18.048;2022-10-31T10:02:04;58.63;;;15.30;;
10281;SDS011;5186;59.472;18.048;2022-10-31T10:04:48;58.37;;;15.87;;
10281;SDS011;5186;59.472;18.048;2022-10-31T10:09:47;51.07;;;15.90;;
10281;SDS011;5186;59.472;18.048;2022-10-31T10:13:01;49.80;;;15.37;;
10281;SDS011;5186;59.472;18.048;2022-10-31T10:18:01;56.30;;;16.17;;
10281;SDS011;5186;59.472;18.048;2022-10-31T10:20:43;47.70;;;16.33;;
10281;SDS011;5186;59.472;18.048;2022-10-31T10:26:18;50.93;;;16.20;;
10281;SDS011;5186;59.472;18.048;2022-10-31T10:28:47;44.77;;;14.97;;
10281;SDS011;5186;59.472;18.048;2022-10-31T10:31:25;36.57;;;14.00;;
10281;SDS011;5186;59.472;18.048;2022-10-31T10:33:58;39.73;;;14.63;;
10281;SDS011;5186;59.472;18.048;2022-10-31T10:36:53;45.43;;;15.10;;
10281;SDS011;5186;59.472;18.048;2022-10-31T10:39:30;30.30;;;12.87;;
10281;SDS011;5186;59.472;18.048;2022-10-31T10:42:14;40.70;;;14.83;;
10281;SDS011;5186;59.472;18.048;2022-10-31T10:44:59;44.43;;;14.30;;
10281;SDS011;5186;59.472;18.048;2022-10-31T10:47:58;36.30;;;13.93;;
10281;SDS011;5186;59.472;18.048;2022-10-31T10:50:36;35.80;;;14.10;;
10281;SDS011;5186;59.472;18.048;2022-10-31T10:53:23;43.57;;;15.97;;
10281;SDS011;5186;59.472;18.048;2022-10-31T10:56:07;36.30;;;14.43;;
10281;SDS011;5186;59.472;18.048;2022-10-31T10:58:42;38.27;;;15.03;;
10281;SDS011;5186;59.472;18.048;2022-10-31T11:01:10;33.83;;;14.87;;
10281;SDS011;5186;59.472;18.048;2022-10-31T11:03:37;34.43;;;14.90;;
10281;SDS011;5186;59.472;18.048;2022-10-31T11:06:03;36.23;;;14.53;;
10281;SDS011;5186;59.472;18.048;2022-10-31T11:10:58;37.37;;;14.83;;
10281;SDS011;5186;59.472;18.048;2022-10-31T11:13:34;34.63;;;14.10;;
10281;SDS011;5186;59.472;18.048;2022-10-31T11:18:30;26.27;;;12.80;;
10281;SDS011;5186;59.472;18.048;2022-10-31T11:20:58;27.43;;;12.60;;
10281;SDS011;5186;59.472;18.048;2022-10-31T11:23:26;27.50;;;12.77;;
10281;SDS011;5186;59.472;18.048;2022-10-31T11:25:57;25.73;;;11.77;;
10281;SDS011;5186;59.472;18.048;2022-10-31T11:28:28;27.50;;;11.93;;
10281;SDS011;5186;59.472;18.048;2022-10-31T11:30:57;23.83;;;11.27;;
10281;SDS011;5186;59.472;18.048;2022-10-31T11:33:31;22.10;;;11.07;;
10281;SDS011;5186;59.472;18.048;2022-10-31T11:36:03;19.10;;;10.57;;
10281;SDS011;5186;59.472;18.048;2022-10-31T11:39:21;19.30;;;10.73;;
10281;SDS011;5186;59.472;18.048;2022-10-31T11:41:49;20.80;;;10.33;;
10281;SDS011;5186;59.472;18.048;2022-10-31T11:46:48;21.47;;;11.20;;
10281;SDS011;5186;59.472;18.048;2022-10-31T11:49:38;20.00;;;10.67;;
10281;SDS011;5186;59.472;18.048;2022-10-31T11:52:05;19.53;;;10.67;;
10281;SDS011;5186;59.472;18.048;2022-10-31T11:57:23;17.63;;;10.13;;
10281;SDS011;5186;59.472;18.048;2022-10-31T12:00:17;18.90;;;10.03;;
10281;SDS011;5186;59.472;18.048;2022-10-31T12:05:40;18.63;;;10.30;;
10281;SDS011;5186;59.472;18.048;2022-10-31T12:08:11;16.87;;;9.20;;
10281;SDS011;5186;59.472;18.048;2022-10-31T12:10:45;17.97;;;10.13;;
10281;SDS011;5186;59.472;18.048;2022-10-31T12:15:58;15.67;;;9.27;;
10281;SDS011;5186;59.472;18.048;2022-10-31T12:29:51;14.33;;;8.63;;
10281;SDS011;5186;59.472;18.048;2022-10-31T12:32:47;13.70;;;8.23;;
10281;SDS011;5186;59.472;18.048;2022-10-31T12:35:36;18.97;;;9.03;;
10281;SDS011;5186;59.472;18.048;2022-10-31T12:46:48;14.70;;;8.03;;
10281;SDS011;5186;59.472;18.048;2022-10-31T12:57:13;10.53;;;7.00;;
10281;SDS011;5186;59.472;18.048;2022-10-31T12:59:51;14.43;;;6.73;;
10281;SDS011;5186;59.472;18.048;2022-10-31T13:02:46;8.70;;;6.27;;
10281;SDS011;5186;59.472;18.048;2022-10-31T13:05:30;12.73;;;7.83;;
10281;SDS011;5186;59.472;18.048;2022-10-31T13:08:19;10.93;;;6.30;;
10281;SDS011;5186;59.472;18.048;2022-10-31T13:16:25;12.00;;;5.57;;
10281;SDS011;5186;59.472;18.048;2022-10-31T13:18:57;12.63;;;6.47;;
10281;SDS011;5186;59.472;18.048;2022-10-31T13:21:30;10.00;;;5.30;;
10281;SDS011;5186;59.472;18.048;2022-10-31T13:24:01;8.17;;;4.70;;
10281;SDS011;5186;59.472;18.048;2022-10-31T13:26:35;10.47;;;5.13;;
10281;SDS011;5186;59.472;18.048;2022-10-31T13:31:42;11.53;;;5.70;;
10281;SDS011;5186;59.472;18.048;2022-10-31T13:39:35;9.67;;;5.80;;
10281;SDS011;5186;59.472;18.048;2022-10-31T13:44:53;8.77;;;4.97;;
10281;SDS011;5186;59.472;18.048;2022-10-31T13:50:04;10.40;;;5.43;;
10281;SDS011;5186;59.472;18.048;2022-10-31T13:52:43;13.33;;;5.53;;
10281;SDS011;5186;59.472;18.048;2022-10-31T13:55:33;10.67;;;5.20;;
10281;SDS011;5186;59.472;18.048;2022-10-31T13:58:19;9.60;;;5.10;;
10281;SDS011;5186;59.472;18.048;2022-10-31T14:03:35;8.93;;;5.23;;
10281;SDS011;5186;59.472;18.048;2022-10-31T14:06:03;13.33;;;5.33;;
10281;SDS011;5186;59.472;18.048;2022-10-31T14:08:31;8.00;;;4.87;;
10281;SDS011;5186;59.472;18.048;2022-10-31T14:11:00;12.43;;;5.03;;
10281;SDS011;5186;59.472;18.048;2022-10-31T14:13:35;11.70;;;5.03;;
10281;SDS011;5186;59.472;18.048;2022-10-31T14:16:06;10.93;;;5.33;;
10281;SDS011;5186;59.472;18.048;2022-10-31T14:19:18;9.33;;;4.80;;
10281;SDS011;5186;59.472;18.048;2022-10-31T14:21:46;10.30;;;5.23;;
10281;SDS011;5186;59.472;18.048;2022-10-31T14:26:58;11.97;;;5.13;;
10281;SDS011;5186;59.472;18.048;2022-10-31T14:29:29;10.93;;;5.20;;
10281;SDS011;5186;59.472;18.048;2022-10-31T14:51:56;10.80;;;4.90;;
10281;SDS011;5186;59.472;18.048;2022-10-31T14:54:38;9.00;;;5.30;;
10281;SDS011;5186;59.472;18.048;2022-10-31T14:57:22;6.47;;;4.83;;
10281;SDS011;5186;59.472;18.048;2022-10-31T14:59:53;10.90;;;5.13;;
10281;SDS011;5186;59.472;18.048;2022-10-31T15:02:37;9.97;;;4.70;;
10281;SDS011;5186;59.472;18.048;2022-10-31T15:05:24;12.70;;;5.57;;
10281;SDS011;5186;59.472;18.048;2022-10-31T15:07:52;7.40;;;4.80;;
10281;SDS011;5186;59.472;18.048;2022-10-31T15:10:28;7.53;;;4.60;;
10281;SDS011;5186;59.472;18.048;2022-10-31T15:13:07;11.43;;;5.33;;
10281;SDS011;5186;59.472;18.048;2022-10-31T15:15:42;9.03;;;4.87;;
10281;SDS011;5186;59.472;18.048;2022-10-31T15:18:13;9.70;;;4.83;;
10281;SDS011;5186;59.472;18.048;2022-10-31T15:20:43;6.73;;;4.60;;
10281;SDS011;5186;59.472;18.048;2022-10-31T15:23:11;8.53;;;5.17;;
10281;SDS011;5186;59.472;18.048;2022-10-31T15:26:00;9.10;;;5.07;;
10281;SDS011;5186;59.472;18.048;2022-10-31T15:28:28;16.37;;;5.67;;
10281;SDS011;5186;59.472;18.048;2022-10-31T15:30:55;9.10;;;5.37;;
10281;SDS011;5186;59.472;18.048;2022-10-31T15:33:27;13.03;;;5.50;;
10281;SDS011;5186;59.472;18.048;2022-10-31T15:35:58;8.90;;;5.23;;
10281;SDS011;5186;59.472;18.048;2022-10-31T15:38:25;8.93;;;4.73;;
10281;SDS011;5186;59.472;18.048;2022-10-31T15:41:43;7.77;;;5.00;;
10281;SDS011;5186;59.472;18.048;2022-10-31T15:43:49;8.70;;;5.27;;
10281;SDS011;5186;59.472;18.048;2022-10-31T15:46:15;16.00;;;5.30;;
10281;SDS011;5186;59.472;18.048;2022-10-31T15:48:45;9.77;;;5.13;;
10281;SDS011;5186;59.472;18.048;2022-10-31T15:51:12;9.80;;;5.17;;
10281;SDS011;5186;59.472;18.048;2022-10-31T15:53:41;8.40;;;5.27;;
10281;SDS011;5186;59.472;18.048;2022-10-31T15:56:18;8.17;;;4.67;;
10281;SDS011;5186;59.472;18.048;2022-10-31T15:58:53;13.17;;;5.63;;
10281;SDS011;5186;59.472;18.048;2022-10-31T16:01:25;9.57;;;5.10;;
10281;SDS011;5186;59.472;18.048;2022-10-31T16:06:28;10.67;;;5.00;;
10281;SDS011;5186;59.472;18.048;2022-10-31T16:08:55;7.70;;;4.77;;
10281;SDS011;5186;59.472;18.048;2022-10-31T16:16:44;8.87;;;4.50;;
10281;SDS011;5186;59.472;18.048;2022-10-31T16:19:20;8.13;;;4.70;;
10281;SDS011;5186;59.472;18.048;2022-10-31T16:21:50;11.13;;;5.00;;
10281;SDS011;5186;59.472;18.048;2022-10-31T16:24:20;7.53;;;5.00;;
10281;SDS011;5186;59.472;18.048;2022-10-31T16:27:05;5.97;;;4.80;;
10281;SDS011;5186;59.472;18.048;2022-10-31T16:29:48;10.33;;;4.90;;
10281;SDS011;5186;59.472;18.048;2022-10-31T16:32:33;8.40;;;4.70;;
10281;SDS011;5186;59.472;18.048;2022-10-31T16:35:01;14.13;;;4.63;;
10281;SDS011;5186;59.472;18.048;2022-10-31T16:37:32;11.73;;;5.70;;
10281;SDS011;5186;59.472;18.048;2022-10-31T16:39:58;11.10;;;5.13;;
10281;SDS011;5186;59.472;18.048;2022-10-31T16:42:24;9.47;;;5.30;;
10281;SDS011;5186;59.472;18.048;2022-10-31T16:44:50;10.13;;;4.90;;
10281;SDS011;5186;59.472;18.048;2022-10-31T16:47:16;10.60;;;4.73;;
10281;SDS011;5186;59.472;18.048;2022-10-31T16:49:42;9.20;;;4.60;;
10281;SDS011;5186;59.472;18.048;2022-10-31T16:52:11;9.40;;;5.00;;
10281;SDS011;5186;59.472;18.048;2022-10-31T16:54:37;8.60;;;4.40;;
10281;SDS011;5186;59.472;18.048;2022-10-31T16:57:04;11.60;;;4.77;;
10281;SDS011;5186;59.472;18.048;2022-10-31T16:59:31;8.60;;;4.67;;
10281;SDS011;5186;59.472;18.048;2022-10-31T17:01:58;9.60;;;4.30;;
10281;SDS011;5186;59.472;18.048;2022-10-31T17:04:25;8.73;;;4.20;;
10281;SDS011;5186;59.472;18.048;2022-10-31T17:06:51;8.53;;;4.87;;
10281;SDS011;5186;59.472;18.048;2022-10-31T17:09:17;10.37;;;4.17;;
10281;SDS011;5186;59.472;18.048;2022-10-31T17:11:46;8.47;;;3.80;;
10281;SDS011;5186;59.472;18.048;2022-10-31T17:14:15;8.67;;;4.03;;
10281;SDS011;5186;59.472;18.048;2022-10-31T17:16:42;9.43;;;4.13;;